sensor_id;sensor_type;location;lat;lon;timestamp;pressure;altitude;pressure_sealevel;temperature;humidity
8366;BME280;4220;42.502;24.188;2023-05-23T00:00:46;95043.03;;;11.13;100.00
8366;BME280;4220;42.502;24.188;2023-05-23T00:03:16;95056.00;;;11.22;100.00
8366;BME280;4220;42.502;24.188;2023-05-23T00:05:47;95051.81;;;11.14;100.00
8366;BME280;4220;42.502;24.188;2023-05-23T00:08:14;95052.13;;;11.06;100.00
8366;BME280;4220;42.502;24.188;2023-05-23T00:10:41;95049.25;;;11.07;100.00
8366;BME280;4220;42.502;24.188;2023-05-23T00:13:10;95057.50;;;11.18;100.00
8366;BME280;4220;42.502;24.188;2023-05-23T00:15:39;95056.66;;;11.47;100.00
8366;BME280;4220;42.502;24.188;2023-05-23T00:18:07;95055.13;;;11.69;100.00
8366;BME280;4220;42.502;24.188;2023-05-23T00:20:35;95055.81;;;11.88;100.00
8366;BME280;4220;42.502;24.188;2023-05-23T00:23:05;95059.06;;;12.01;100.00
8366;BME280;4220;42.502;24.188;2023-05-23T00:25:33;95058.38;;;12.06;100.00
8366;BME280;4220;42.502;24.188;2023-05-23T00:28:00;95051.22;;;12.06;100.00
8366;BME280;4220;42.502;24.188;2023-05-23T00:30:29;95048.41;;;11.78;100.00
8366;BME280;4220;42.502;24.188;2023-05-23T00:32:56;95040.84;;;11.63;100.00
8366;BME280;4220;42.502;24.188;2023-05-23T00:35:25;95049.31;;;11.72;100.00
8366;BME280;4220;42.502;24.188;2023-05-23T00:37:52;95041.84;;;11.80;100.00
8366;BME280;4220;42.502;24.188;2023-05-23T00:40:20;95035.25;;;11.95;100.00
8366;BME280;4220;42.502;24.188;2023-05-23T00:42:47;95023.47;;;11.91;100.00
8366;BME280;4220;42.502;24.188;2023-05-23T00:45:14;95042.06;;;12.02;100.00
8366;BME280;4220;42.502;24.188;2023-05-23T00:47:43;95051.19;;;11.95;100.00
8366;BME280;4220;42.502;24.188;2023-05-23T00:50:12;95048.09;;;11.86;100.00
8366;BME280;4220;42.502;24.188;2023-05-23T00:52:41;95042.06;;;11.79;100.00
8366;BME280;4220;42.502;24.188;2023-05-23T00:55:08;95045.63;;;11.73;100.00
8366;BME280;4220;42.502;24.188;2023-05-23T00:57:35;95019.13;;;11.55;100.00
8366;BME280;4220;42.502;24.188;2023-05-23T01:00:06;95039.63;;;11.77;100.00
8366;BME280;4220;42.502;24.188;2023-05-23T01:02:37;95044.63;;;11.74;100.00
8366;BME280;4220;42.502;24.188;2023-05-23T01:05:08;95032.41;;;11.55;100.00
8366;BME280;4220;42.502;24.188;2023-05-23T01:07:35;95040.38;;;11.55;100.00
8366;BME280;4220;42.502;24.188;2023-05-23T01:10:02;95043.50;;;11.63;100.00
8366;BME280;4220;42.502;24.188;2023-05-23T01:12:38;95032.34;;;11.73;100.00
8366;BME280;4220;42.502;24.188;2023-05-23T01:15:09;95035.13;;;11.78;100.00
8366;BME280;4220;42.502;24.188;2023-05-23T01:17:42;95031.50;;;11.61;100.00
8366;BME280;4220;42.502;24.188;2023-05-23T01:20:16;95031.75;;;11.59;100.00
8366;BME280;4220;42.502;24.188;2023-05-23T01:23:08;95033.72;;;11.64;100.00
8366;BME280;4220;42.502;24.188;2023-05-23T01:25:46;95042.19;;;11.84;100.00
8366;BME280;4220;42.502;24.188;2023-05-23T01:28:18;95026.00;;;11.86;100.00
8366;BME280;4220;42.502;24.188;2023-05-23T01:30:50;95044.38;;;11.87;100.00
8366;BME280;4220;42.502;24.188;2023-05-23T01:33:19;95035.38;;;11.88;100.00
8366;BME280;4220;42.502;24.188;2023-05-23T01:35:46;95037.09;;;11.82;100.00
8366;BME280;4220;42.502;24.188;2023-05-23T01:38:13;95041.03;;;11.92;100.00
8366;BME280;4220;42.502;24.188;2023-05-23T01:40:40;95024.16;;;11.74;100.00
8366;BME280;4220;42.502;24.188;2023-05-23T01:43:07;95034.09;;;11.79;100.00
8366;BME280;4220;42.502;24.188;2023-05-23T01:45:36;95020.09;;;11.72;100.00
8366;BME280;4220;42.502;24.188;2023-05-23T01:48:03;95040.84;;;11.63;100.00
8366;BME280;4220;42.502;24.188;2023-05-23T01:50:31;95022.09;;;11.35;100.00
8366;BME280;4220;42.502;24.188;2023-05-23T01:52:59;95027.63;;;11.34;100.00
8366;BME280;4220;42.502;24.188;2023-05-23T01:55:26;95022.16;;;11.17;100.00
8366;BME280;4220;42.502;24.188;2023-05-23T01:57:55;95012.66;;;10.98;100.00
8366;BME280;4220;42.502;24.188;2023-05-23T02:00:23;94969.53;;;10.73;100.00
8366;BME280;4220;42.502;24.188;2023-05-23T02:02:51;95023.91;;;11.23;100.00
8366;BME280;4220;42.502;24.188;2023-05-23T02:05:18;95021.34;;;11.16;100.00
8366;BME280;4220;42.502;24.188;2023-05-23T02:07:45;95025.94;;;11.09;100.00
8366;BME280;4220;42.502;24.188;2023-05-23T02:10:12;95027.22;;;11.07;100.00
8366;BME280;4220;42.502;24.188;2023-05-23T02:12:38;95024.94;;;11.10;100.00
8366;BME280;4220;42.502;24.188;2023-05-23T02:15:06;95023.31;;;11.21;100.00
8366;BME280;4220;42.502;24.188;2023-05-23T02:17:33;95020.34;;;11.29;100.00
8366;BME280;4220;42.502;24.188;2023-05-23T02:20:02;95019.56;;;11.40;100.00
8366;BME280;4220;42.502;24.188;2023-05-23T02:22:29;95027.56;;;11.52;100.00
8366;BME280;4220;42.502;24.188;2023-05-23T02:24:56;95025.25;;;11.44;100.00
8366;BME280;4220;42.502;24.188;2023-05-23T02:27:22;95024.44;;;11.55;100.00
8366;BME280;4220;42.502;24.188;2023-05-23T02:29:49;95035.16;;;11.48;100.00
8366;BME280;4220;42.502;24.188;2023-05-23T02:32:16;95027.31;;;11.42;100.00
8366;BME280;4220;42.502;24.188;2023-05-23T02:34:43;95022.69;;;11.37;100.00
8366;BME280;4220;42.502;24.188;2023-05-23T02:37:12;95020.75;;;11.44;100.00
8366;BME280;4220;42.502;24.188;2023-05-23T02:39:39;95012.28;;;11.36;100.00
8366;BME280;4220;42.502;24.188;2023-05-23T02:42:06;95024.28;;;11.38;100.00
8366;BME280;4220;42.502;24.188;2023-05-23T02:44:33;95016.81;;;11.47;100.00
8366;BME280;4220;42.502;24.188;2023-05-23T02:47:00;95020.50;;;11.46;100.00
8366;BME280;4220;42.502;24.188;2023-05-23T02:49:27;95027.91;;;11.44;100.00
8366;BME280;4220;42.502;24.188;2023-05-23T02:51:54;95021.16;;;11.30;100.00
8366;BME280;4220;42.502;24.188;2023-05-23T02:54:22;95021.31;;;11.35;100.00
8366;BME280;4220;42.502;24.188;2023-05-23T02:56:49;95029.97;;;11.42;100.00
8366;BME280;4220;42.502;24.188;2023-05-23T02:59:16;95020.13;;;11.31;100.00
8366;BME280;4220;42.502;24.188;2023-05-23T03:01:43;95020.69;;;11.33;100.00
8366;BME280;4220;42.502;24.188;2023-05-23T03:04:10;95010.69;;;11.35;100.00
8366;BME280;4220;42.502;24.188;2023-05-23T03:06:38;95020.81;;;11.26;100.00
8366;BME280;4220;42.502;24.188;2023-05-23T03:09:07;95023.13;;;11.23;100.00
8366;BME280;4220;42.502;24.188;2023-05-23T03:11:35;95013.50;;;11.10;100.00
8366;BME280;4220;42.502;24.188;2023-05-23T03:14:02;94998.28;;;11.17;100.00
8366;BME280;4220;42.502;24.188;2023-05-23T03:16:29;95028.91;;;11.31;100.00
8366;BME280;4220;42.502;24.188;2023-05-23T03:18:56;95018.25;;;11.20;100.00
8366;BME280;4220;42.502;24.188;2023-05-23T03:21:23;95019.78;;;11.39;100.00
8366;BME280;4220;42.502;24.188;2023-05-23T03:23:50;95020.50;;;11.46;100.00
8366;BME280;4220;42.502;24.188;2023-05-23T03:26:17;95019.47;;;11.47;100.00
8366;BME280;4220;42.502;24.188;2023-05-23T03:28:45;95015.75;;;11.48;100.00
8366;BME280;4220;42.502;24.188;2023-05-23T03:31:12;95008.09;;;11.28;100.00
8366;BME280;4220;42.502;24.188;2023-05-23T03:33:39;95012.25;;;11.12;100.00
8366;BME280;4220;42.502;24.188;2023-05-23T03:36:06;95001.38;;;11.14;100.00
8366;BME280;4220;42.502;24.188;2023-05-23T03:38:33;95012.81;;;11.14;100.00
8366;BME280;4220;42.502;24.188;2023-05-23T03:40:59;95014.41;;;11.15;100.00
8366;BME280;4220;42.502;24.188;2023-05-23T03:43:26;95006.41;;;10.92;100.00
8366;BME280;4220;42.502;24.188;2023-05-23T03:45:55;95014.34;;;10.92;100.00
8366;BME280;4220;42.502;24.188;2023-05-23T03:48:21;95014.38;;;11.04;100.00
8366;BME280;4220;42.502;24.188;2023-05-23T03:50:48;95010.06;;;11.21;100.00
8366;BME280;4220;42.502;24.188;2023-05-23T03:53:15;95018.53;;;11.41;100.00
8366;BME280;4220;42.502;24.188;2023-05-23T03:55:42;95028.03;;;11.49;100.00
8366;BME280;4220;42.502;24.188;2023-05-23T03:58:09;95027.34;;;11.65;100.00
8366;BME280;4220;42.502;24.188;2023-05-23T04:00:36;95025.78;;;11.75;100.00
8366;BME280;4220;42.502;24.188;2023-05-23T04:03:04;95027.97;;;11.90;100.00
8366;BME280;4220;42.502;24.188;2023-05-23T04:05:32;95025.56;;;12.00;100.00
8366;BME280;4220;42.502;24.188;2023-05-23T04:07:59;95035.16;;;12.13;100.00
8366;BME280;4220;42.502;24.188;2023-05-23T04:10:26;95034.09;;;12.25;100.00
8366;BME280;4220;42.502;24.188;2023-05-23T04:12:53;95035.81;;;12.31;100.00
8366;BME280;4220;42.502;24.188;2023-05-23T04:15:21;95037.78;;;12.48;100.00
8366;BME280;4220;42.502;24.188;2023-05-23T04:17:48;95036.72;;;12.60;100.00
8366;BME280;4220;42.502;24.188;2023-05-23T04:20:17;95034.81;;;12.72;100.00
8366;BME280;4220;42.502;24.188;2023-05-23T04:22:44;95033.66;;;12.80;100.00
8366;BME280;4220;42.502;24.188;2023-05-23T04:25:11;95026.81;;;12.84;100.00
8366;BME280;4220;42.502;24.188;2023-05-23T04:27:38;95038.78;;;12.98;100.00
8366;BME280;4220;42.502;24.188;2023-05-23T04:30:06;95045.16;;;12.97;100.00
8366;BME280;4220;42.502;24.188;2023-05-23T04:32:34;95037.28;;;13.02;100.00
8366;BME280;4220;42.502;24.188;2023-05-23T04:35:02;95033.69;;;13.08;100.00
8366;BME280;4220;42.502;24.188;2023-05-23T04:37:31;95041.03;;;13.18;100.00
8366;BME280;4220;42.502;24.188;2023-05-23T04:39:58;95038.44;;;13.06;100.00
8366;BME280;4220;42.502;24.188;2023-05-23T04:42:25;95039.44;;;13.05;100.00
8366;BME280;4220;42.502;24.188;2023-05-23T04:44:53;95034.44;;;13.20;100.00
8366;BME280;4220;42.502;24.188;2023-05-23T04:47:22;95034.91;;;13.17;100.00
8366;BME280;4220;42.502;24.188;2023-05-23T04:49:53;95030.09;;;13.14;100.00
8366;BME280;4220;42.502;24.188;2023-05-23T04:52:21;95037.84;;;13.32;100.00
8366;BME280;4220;42.502;24.188;2023-05-23T04:54:49;95033.03;;;13.29;100.00
8366;BME280;4220;42.502;24.188;2023-05-23T04:57:18;95037.84;;;13.32;100.00
8366;BME280;4220;42.502;24.188;2023-05-23T04:59:45;95044.16;;;13.26;100.00
8366;BME280;4220;42.502;24.188;2023-05-23T05:02:12;95029.69;;;13.22;100.00
8366;BME280;4220;42.502;24.188;2023-05-23T05:04:39;95039.50;;;13.50;100.00
8366;BME280;4220;42.502;24.188;2023-05-23T05:07:05;95037.81;;;13.60;100.00
8366;BME280;4220;42.502;24.188;2023-05-23T05:09:32;95029.75;;;13.72;100.00
8366;BME280;4220;42.502;24.188;2023-05-23T05:12:01;95040.91;;;14.02;100.00
8366;BME280;4220;42.502;24.188;2023-05-23T05:14:28;95026.44;;;14.15;100.00
8366;BME280;4220;42.502;24.188;2023-05-23T05:16:54;95031.91;;;14.42;100.00
8366;BME280;4220;42.502;24.188;2023-05-23T05:19:22;95032.97;;;14.62;100.00
8366;BME280;4220;42.502;24.188;2023-05-23T05:21:49;95028.25;;;14.69;100.00
8366;BME280;4220;42.502;24.188;2023-05-23T05:24:15;95034.84;;;14.83;100.00
8366;BME280;4220;42.502;24.188;2023-05-23T05:26:45;95028.00;;;14.92;100.00
8366;BME280;4220;42.502;24.188;2023-05-23T05:29:13;95037.72;;;14.98;100.00
8366;BME280;4220;42.502;24.188;2023-05-23T05:31:40;95037.84;;;15.14;100.00
8366;BME280;4220;42.502;24.188;2023-05-23T05:34:07;95032.69;;;15.29;100.00
8366;BME280;4220;42.502;24.188;2023-05-23T05:36:35;94992.25;;;14.93;100.00
8366;BME280;4220;42.502;24.188;2023-05-23T05:39:02;94991.84;;;15.06;100.00
8366;BME280;4220;42.502;24.188;2023-05-23T05:41:29;95051.41;;;15.55;100.00
8366;BME280;4220;42.502;24.188;2023-05-23T05:43:56;95053.69;;;15.68;100.00
8366;BME280;4220;42.502;24.188;2023-05-23T05:46:24;95053.28;;;15.82;100.00
8366;BME280;4220;42.502;24.188;2023-05-23T05:48:51;95052.03;;;15.94;100.00
8366;BME280;4220;42.502;24.188;2023-05-23T05:51:18;95056.34;;;16.00;100.00
8366;BME280;4220;42.502;24.188;2023-05-23T05:53:46;95057.53;;;16.14;100.00
8366;BME280;4220;42.502;24.188;2023-05-23T05:56:14;95053.88;;;16.25;100.00
8366;BME280;4220;42.502;24.188;2023-05-23T05:58:41;95043.25;;;16.35;100.00
8366;BME280;4220;42.502;24.188;2023-05-23T06:01:07;95049.19;;;16.43;100.00
8366;BME280;4220;42.502;24.188;2023-05-23T06:03:36;95047.66;;;16.52;100.00
8366;BME280;4220;42.502;24.188;2023-05-23T06:06:03;95050.41;;;16.67;100.00
8366;BME280;4220;42.502;24.188;2023-05-23T06:08:31;95032.25;;;16.74;100.00
8366;BME280;4220;42.502;24.188;2023-05-23T06:10:58;95047.06;;;16.91;100.00
8366;BME280;4220;42.502;24.188;2023-05-23T06:13:24;95044.41;;;17.02;100.00
8366;BME280;4220;42.502;24.188;2023-05-23T06:15:51;95044.72;;;17.10;100.00
8366;BME280;4220;42.502;24.188;2023-05-23T06:18:18;95043.16;;;17.19;100.00
8366;BME280;4220;42.502;24.188;2023-05-23T06:20:46;95041.56;;;17.28;100.00
8366;BME280;4220;42.502;24.188;2023-05-23T06:23:13;95039.94;;;17.32;100.00
8366;BME280;4220;42.502;24.188;2023-05-23T06:25:40;95041.06;;;17.41;100.00
8366;BME280;4220;42.502;24.188;2023-05-23T06:28:07;95038.47;;;17.56;100.00
8366;BME280;4220;42.502;24.188;2023-05-23T06:30:34;95043.28;;;17.80;100.00
8366;BME280;4220;42.502;24.188;2023-05-23T06:33:02;95049.50;;;17.90;100.00
8366;BME280;4220;42.502;24.188;2023-05-23T06:35:29;95039.81;;;18.04;100.00
8366;BME280;4220;42.502;24.188;2023-05-23T06:37:58;95042.50;;;18.04;100.00
8366;BME280;4220;42.502;24.188;2023-05-23T06:40:25;95054.88;;;18.10;100.00
8366;BME280;4220;42.502;24.188;2023-05-23T06:42:51;95050.03;;;18.17;100.00
8366;BME280;4220;42.502;24.188;2023-05-23T06:45:18;95040.63;;;18.15;100.00
8366;BME280;4220;42.502;24.188;2023-05-23T06:47:45;95006.28;;;18.07;100.00
8366;BME280;4220;42.502;24.188;2023-05-23T06:50:12;95047.34;;;18.33;100.00
8366;BME280;4220;42.502;24.188;2023-05-23T06:52:39;95044.91;;;18.31;98.82
8366;BME280;4220;42.502;24.188;2023-05-23T06:55:09;95050.53;;;18.45;94.85
8366;BME280;4220;42.502;24.188;2023-05-23T06:57:38;95038.47;;;18.52;93.41
8366;BME280;4220;42.502;24.188;2023-05-23T07:00:06;95042.72;;;18.63;91.77
8366;BME280;4220;42.502;24.188;2023-05-23T07:02:33;95050.78;;;18.68;88.99
8366;BME280;4220;42.502;24.188;2023-05-23T07:05:00;95053.16;;;18.80;91.54
8366;BME280;4220;42.502;24.188;2023-05-23T07:07:27;95044.81;;;18.97;91.09
8366;BME280;4220;42.502;24.188;2023-05-23T07:09:54;95037.19;;;19.14;87.33
8366;BME280;4220;42.502;24.188;2023-05-23T07:12:22;95044.63;;;19.32;87.23
8366;BME280;4220;42.502;24.188;2023-05-23T07:14:49;95046.22;;;19.43;85.40
8366;BME280;4220;42.502;24.188;2023-05-23T07:17:16;95040.47;;;19.60;85.84
8366;BME280;4220;42.502;24.188;2023-05-23T07:19:44;95050.34;;;19.74;82.20
8366;BME280;4220;42.502;24.188;2023-05-23T07:22:11;95053.59;;;19.71;81.23
8366;BME280;4220;42.502;24.188;2023-05-23T07:24:38;95057.56;;;19.79;82.11
8366;BME280;4220;42.502;24.188;2023-05-23T07:27:05;95028.19;;;19.87;82.19
8366;BME280;4220;42.502;24.188;2023-05-23T07:29:33;95049.81;;;20.11;81.05
8366;BME280;4220;42.502;24.188;2023-05-23T07:32:00;95028.38;;;19.96;79.76
8366;BME280;4220;42.502;24.188;2023-05-23T07:34:27;95050.66;;;20.06;78.83
8366;BME280;4220;42.502;24.188;2023-05-23T07:36:55;95043.91;;;20.09;80.40
8366;BME280;4220;42.502;24.188;2023-05-23T07:39:21;95040.84;;;20.20;82.23
8366;BME280;4220;42.502;24.188;2023-05-23T07:41:48;95038.28;;;20.39;80.61
8366;BME280;4220;42.502;24.188;2023-05-23T07:44:17;94992.69;;;20.14;78.71
8366;BME280;4220;42.502;24.188;2023-05-23T07:46:46;95038.94;;;20.26;77.15
8366;BME280;4220;42.502;24.188;2023-05-23T07:49:12;95037.56;;;20.29;77.91
8366;BME280;4220;42.502;24.188;2023-05-23T07:51:39;95031.91;;;20.30;78.93
8366;BME280;4220;42.502;24.188;2023-05-23T07:54:07;94950.13;;;19.87;77.99
8366;BME280;4220;42.502;24.188;2023-05-23T07:56:34;95030.63;;;20.51;76.58
8366;BME280;4220;42.502;24.188;2023-05-23T07:59:02;95041.13;;;20.53;77.93
8366;BME280;4220;42.502;24.188;2023-05-23T08:01:29;95032.84;;;20.44;75.89
8366;BME280;4220;42.502;24.188;2023-05-23T08:03:57;95034.50;;;20.40;75.67
8366;BME280;4220;42.502;24.188;2023-05-23T08:06:24;95004.25;;;20.19;75.96
8366;BME280;4220;42.502;24.188;2023-05-23T08:08:51;95015.13;;;20.38;74.08
8366;BME280;4220;42.502;24.188;2023-05-23T08:11:18;95028.78;;;20.47;74.23
8366;BME280;4220;42.502;24.188;2023-05-23T08:13:45;95036.00;;;20.80;76.05
8366;BME280;4220;42.502;24.188;2023-05-23T08:16:12;95028.03;;;21.17;76.03
8366;BME280;4220;42.502;24.188;2023-05-23T08:18:39;95034.13;;;21.46;75.70
8366;BME280;4220;42.502;24.188;2023-05-23T08:21:07;95031.22;;;21.80;73.72
8366;BME280;4220;42.502;24.188;2023-05-23T08:23:34;95022.03;;;22.00;74.20
8366;BME280;4220;42.502;24.188;2023-05-23T08:26:09;95038.56;;;22.31;71.61
8366;BME280;4220;42.502;24.188;2023-05-23T08:28:36;95030.31;;;22.54;71.73
8366;BME280;4220;42.502;24.188;2023-05-23T08:31:03;95031.25;;;22.63;69.74
8366;BME280;4220;42.502;24.188;2023-05-23T08:33:31;95024.97;;;22.82;68.81
8366;BME280;4220;42.502;24.188;2023-05-23T08:35:58;95028.97;;;22.98;70.32
8366;BME280;4220;42.502;24.188;2023-05-23T08:38:25;95025.06;;;23.17;69.14
8366;BME280;4220;42.502;24.188;2023-05-23T08:40:53;95029.41;;;23.46;67.92
8366;BME280;4220;42.502;24.188;2023-05-23T08:43:23;95023.94;;;23.59;64.45
8366;BME280;4220;42.502;24.188;2023-05-23T08:45:50;95020.06;;;23.24;64.63
8366;BME280;4220;42.502;24.188;2023-05-23T08:48:18;95025.19;;;22.99;64.63
8366;BME280;4220;42.502;24.188;2023-05-23T08:50:47;95022.41;;;22.58;65.72
8366;BME280;4220;42.502;24.188;2023-05-23T08:53:15;95018.25;;;22.33;66.12
8366;BME280;4220;42.502;24.188;2023-05-23T08:55:45;95031.13;;;22.04;66.92
8366;BME280;4220;42.502;24.188;2023-05-23T08:58:13;95027.91;;;21.88;67.49
8366;BME280;4220;42.502;24.188;2023-05-23T09:00:43;95007.28;;;21.92;65.90
8366;BME280;4220;42.502;24.188;2023-05-23T09:03:10;95012.75;;;22.06;65.48
8366;BME280;4220;42.502;24.188;2023-05-23T09:05:38;95020.00;;;22.24;67.20
8366;BME280;4220;42.502;24.188;2023-05-23T09:08:05;95020.59;;;22.53;66.84
8366;BME280;4220;42.502;24.188;2023-05-23T09:10:33;95001.81;;;22.75;64.68
8366;BME280;4220;42.502;24.188;2023-05-23T09:13:00;95011.97;;;23.11;63.20
8366;BME280;4220;42.502;24.188;2023-05-23T09:15:27;95013.75;;;23.42;64.32
8366;BME280;4220;42.502;24.188;2023-05-23T09:18:00;95019.94;;;23.57;63.47
8366;BME280;4220;42.502;24.188;2023-05-23T09:20:28;95015.22;;;23.62;64.29
8366;BME280;4220;42.502;24.188;2023-05-23T09:22:55;95010.03;;;23.52;65.01
8366;BME280;4220;42.502;24.188;2023-05-23T09:25:22;95014.34;;;23.53;66.05
8366;BME280;4220;42.502;24.188;2023-05-23T09:27:51;95021.97;;;23.51;64.40
8366;BME280;4220;42.502;24.188;2023-05-23T09:30:20;95016.56;;;23.37;63.35
8366;BME280;4220;42.502;24.188;2023-05-23T09:33:00;95000.91;;;23.48;63.53
8366;BME280;4220;42.502;24.188;2023-05-23T09:37:56;95008.25;;;23.34;61.91
8366;BME280;4220;42.502;24.188;2023-05-23T09:40:29;94995.91;;;23.28;61.08
8366;BME280;4220;42.502;24.188;2023-05-23T09:43:01;94998.91;;;23.54;60.62
8366;BME280;4220;42.502;24.188;2023-05-23T09:45:30;94984.00;;;23.78;60.81
8366;BME280;4220;42.502;24.188;2023-05-23T09:47:57;95010.84;;;24.33;60.21
8366;BME280;4220;42.502;24.188;2023-05-23T09:50:29;95017.06;;;24.78;58.94
8366;BME280;4220;42.502;24.188;2023-05-23T09:52:57;95013.41;;;24.82;56.76
8366;BME280;4220;42.502;24.188;2023-05-23T09:55:24;95006.91;;;24.61;57.30
8366;BME280;4220;42.502;24.188;2023-05-23T09:57:52;95010.25;;;24.36;58.35
8366;BME280;4220;42.502;24.188;2023-05-23T10:00:22;94993.50;;;24.12;60.29
8366;BME280;4220;42.502;24.188;2023-05-23T10:03:04;94995.63;;;24.01;59.30
8366;BME280;4220;42.502;24.188;2023-05-23T10:05:40;95006.69;;;23.91;59.26
8366;BME280;4220;42.502;24.188;2023-05-23T10:08:12;94998.75;;;23.72;59.85
8366;BME280;4220;42.502;24.188;2023-05-23T10:13:56;94985.31;;;22.77;61.70
8366;BME280;4220;42.502;24.188;2023-05-23T10:16:29;94999.13;;;22.43;62.93
8366;BME280;4220;42.502;24.188;2023-05-23T10:19:04;94989.63;;;22.32;64.39
8366;BME280;4220;42.502;24.188;2023-05-23T10:21:37;94990.78;;;22.26;62.96
8366;BME280;4220;42.502;24.188;2023-05-23T10:24:07;94996.25;;;22.53;64.02
8366;BME280;4220;42.502;24.188;2023-05-23T10:26:34;94977.31;;;22.99;62.15
8366;BME280;4220;42.502;24.188;2023-05-23T10:29:01;94994.44;;;23.71;60.59
8366;BME280;4220;42.502;24.188;2023-05-23T10:31:30;94994.25;;;24.26;56.85
8366;BME280;4220;42.502;24.188;2023-05-23T10:34:01;94971.47;;;24.27;54.70
8366;BME280;4220;42.502;24.188;2023-05-23T10:36:36;94994.91;;;24.84;54.72
8366;BME280;4220;42.502;24.188;2023-05-23T10:39:11;94988.38;;;24.85;52.05
8366;BME280;4220;42.502;24.188;2023-05-23T10:41:44;94997.19;;;24.99;51.00
8366;BME280;4220;42.502;24.188;2023-05-23T10:44:22;94991.31;;;25.45;51.47
8366;BME280;4220;42.502;24.188;2023-05-23T10:46:51;94987.78;;;25.70;49.45
8366;BME280;4220;42.502;24.188;2023-05-23T10:49:18;94981.91;;;26.20;48.04
8366;BME280;4220;42.502;24.188;2023-05-23T10:51:48;94975.56;;;26.71;47.16
8366;BME280;4220;42.502;24.188;2023-05-23T10:54:17;94985.38;;;27.01;46.70
8366;BME280;4220;42.502;24.188;2023-05-23T10:56:44;94992.34;;;26.90;46.21
8366;BME280;4220;42.502;24.188;2023-05-23T10:59:19;94993.63;;;26.84;44.95
8366;BME280;4220;42.502;24.188;2023-05-23T11:01:50;94993.56;;;26.37;45.89
8366;BME280;4220;42.502;24.188;2023-05-23T11:04:24;94990.53;;;25.87;49.61
8366;BME280;4220;42.502;24.188;2023-05-23T11:06:54;94994.44;;;25.39;52.61
8366;BME280;4220;42.502;24.188;2023-05-23T11:09:21;94986.53;;;25.03;51.71
8366;BME280;4220;42.502;24.188;2023-05-23T11:11:58;94992.03;;;24.81;54.07
8366;BME280;4220;42.502;24.188;2023-05-23T11:14:32;94975.94;;;24.62;53.48
8366;BME280;4220;42.502;24.188;2023-05-23T11:16:59;94997.78;;;24.79;51.07
8366;BME280;4220;42.502;24.188;2023-05-23T11:19:27;95004.19;;;24.61;51.05
8366;BME280;4220;42.502;24.188;2023-05-23T11:21:57;95001.41;;;24.52;52.58
8366;BME280;4220;42.502;24.188;2023-05-23T11:24:47;95002.66;;;24.46;54.46
8366;BME280;4220;42.502;24.188;2023-05-23T11:27:16;94991.09;;;24.32;54.62
8366;BME280;4220;42.502;24.188;2023-05-23T11:29:45;94998.06;;;24.25;54.87
8366;BME280;4220;42.502;24.188;2023-05-23T11:32:22;95003.50;;;24.25;55.05
8366;BME280;4220;42.502;24.188;2023-05-23T11:34:49;94992.66;;;24.25;55.34
8366;BME280;4220;42.502;24.188;2023-05-23T11:37:18;94992.47;;;24.21;55.62
8366;BME280;4220;42.502;24.188;2023-05-23T11:39:45;94996.13;;;24.25;56.36
8366;BME280;4220;42.502;24.188;2023-05-23T11:42:12;94986.59;;;24.28;55.57
8366;BME280;4220;42.502;24.188;2023-05-23T11:44:38;94979.63;;;24.35;56.25
8366;BME280;4220;42.502;24.188;2023-05-23T11:47:06;94987.81;;;24.44;55.65
8366;BME280;4220;42.502;24.188;2023-05-23T11:49:35;94985.25;;;24.39;55.72
8366;BME280;4220;42.502;24.188;2023-05-23T11:52:03;94989.03;;;24.38;54.25
8366;BME280;4220;42.502;24.188;2023-05-23T11:54:32;94982.41;;;24.44;53.63
8366;BME280;4220;42.502;24.188;2023-05-23T11:56:59;94958.25;;;24.34;52.94
8366;BME280;4220;42.502;24.188;2023-05-23T11:59:27;94981.56;;;24.65;53.47
8366;BME280;4220;42.502;24.188;2023-05-23T12:01:54;94974.88;;;24.72;54.11
8366;BME280;4220;42.502;24.188;2023-05-23T12:04:21;94984.47;;;25.08;56.07
8366;BME280;4220;42.502;24.188;2023-05-23T12:06:50;94987.09;;;25.30;56.59
8366;BME280;4220;42.502;24.188;2023-05-23T12:09:17;94986.28;;;25.39;55.45
8366;BME280;4220;42.502;24.188;2023-05-23T12:11:47;94980.53;;;25.31;57.18
8366;BME280;4220;42.502;24.188;2023-05-23T12:14:15;94975.03;;;25.06;60.82
8366;BME280;4220;42.502;24.188;2023-05-23T12:16:43;94989.19;;;24.94;65.66
8366;BME280;4220;42.502;24.188;2023-05-23T12:19:11;94973.84;;;24.81;63.94
8366;BME280;4220;42.502;24.188;2023-05-23T12:21:42;94975.44;;;24.60;63.67
8366;BME280;4220;42.502;24.188;2023-05-23T12:24:17;94965.00;;;24.45;65.03
8366;BME280;4220;42.502;24.188;2023-05-23T12:26:50;94972.56;;;24.56;64.74
8366;BME280;4220;42.502;24.188;2023-05-23T12:29:18;94966.69;;;24.54;65.23
8366;BME280;4220;42.502;24.188;2023-05-23T12:31:50;94967.22;;;24.43;66.71
8366;BME280;4220;42.502;24.188;2023-05-23T12:34:19;94963.69;;;24.34;66.06
8366;BME280;4220;42.502;24.188;2023-05-23T12:36:46;94952.56;;;24.44;65.53
8366;BME280;4220;42.502;24.188;2023-05-23T12:39:13;94962.88;;;24.64;63.24
8366;BME280;4220;42.502;24.188;2023-05-23T12:41:41;94953.59;;;24.87;61.42
8366;BME280;4220;42.502;24.188;2023-05-23T12:44:14;94951.63;;;25.18;58.72
8366;BME280;4220;42.502;24.188;2023-05-23T12:46:41;94959.44;;;25.28;55.82
8366;BME280;4220;42.502;24.188;2023-05-23T12:49:08;94950.84;;;25.35;55.83
8366;BME280;4220;42.502;24.188;2023-05-23T12:51:35;94958.88;;;25.49;56.33
8366;BME280;4220;42.502;24.188;2023-05-23T12:54:02;94952.66;;;25.57;55.83
8366;BME280;4220;42.502;24.188;2023-05-23T12:56:29;94950.25;;;25.55;54.43
8366;BME280;4220;42.502;24.188;2023-05-23T12:58:56;94946.22;;;25.36;53.90
8366;BME280;4220;42.502;24.188;2023-05-23T13:01:24;94947.91;;;25.14;54.41
8366;BME280;4220;42.502;24.188;2023-05-23T13:03:51;94921.84;;;24.88;53.49
8366;BME280;4220;42.502;24.188;2023-05-23T13:06:18;94944.38;;;25.05;54.10
8366;BME280;4220;42.502;24.188;2023-05-23T13:08:45;94939.28;;;25.21;54.08
8366;BME280;4220;42.502;24.188;2023-05-23T13:11:13;94946.75;;;25.55;52.78
8366;BME280;4220;42.502;24.188;2023-05-23T13:13:40;94941.75;;;26.08;51.83
8366;BME280;4220;42.502;24.188;2023-05-23T13:16:07;94942.34;;;26.39;50.39